Port Hood, Canada
Current Conditions -  °F | °C
As of 11:00 AM on Friday 19 Dec 2014 (Local Time) from CYPD Reporting Station
Overcast Overcast  
Wind Chill: 28°   Ceiling: 800
Heat Index: 36°   Visibility: 9mi
Dew Point: 34°   Wind: 12mph
Humidity: 93%   Direction: 260°W
Pressure: 29.54"   Gusts: 18mph
Location:  46.03°N, 61.53°W
Report Text: CYPD 191500Z AUTO 26010G16KT 9SM OVC008 02/01 A2954 RMK SLP009
Loading
Personal Weather Stations






























Interactive Weather Map New forecast layout! Learn more

10-Day Weather Forecast

Advertisements
Track Severe Weather on mobile